WXM80 ListenWXM80 Stop

You find our weather info also at:

UK Metoffice

WeatherCloud

Weather Underground

Northeastern Weather Network

AWEKAS

Citizen Weather Observer Program (CWOP)

HAMweather, WeatherForYou, PWS Weather


Weather Underground History page Text

Daily Summary for October 13, 2016 Units:  English    Metric   Both
« Previous Day
Next Day »
Daily Weekly Monthly Yearly Custom
  High: Low: Average:
Temperature: 69.5 °F 54.0 °F 60.3 °F
Dew Point: 62.2 °F 48.8 °F 56.5 °F
Humidity: 98 % 72 % 88 %
Wind Speed: 9.4 mph 0.0 mph 1.8 mph
Wind Gust: 18.0 mph - -
Wind:- - SW
Pressure: 30.17 in 29.99 in -
Precipitation: 0.00 in    
Historical Graphs
 
 
Tabular Data for October 13, 2016
Time Temperature Dew Point Pressure Wind Wind Speed Wind Gust Humidity Rainfall Rate (Hourly)
00:02 56.4 °F 54.4 °F 30.17 in SSE 0.3 mph 1.2 mph 93 % 0.00 in
00:07 56.4 °F 54.7 °F 30.17 in SSE 0.1 mph 1.2 mph 94 % 0.00 in
00:12 56.4 °F 54.7 °F 30.16 in SSE 0.7 mph 3.0 mph 94 % 0.00 in
00:17 56.4 °F 54.7 °F 30.16 in SSE 0.1 mph 2.3 mph 94 % 0.00 in
00:22 56.3 °F 54.6 °F 30.15 in SSE 0.4 mph 2.3 mph 94 % 0.00 in
00:27 56.2 °F 54.5 °F 30.15 in SSE 0.3 mph 1.2 mph 94 % 0.00 in
00:32 56.2 °F 54.5 °F 30.15 in SSE 0.7 mph 2.0 mph 94 % 0.00 in
00:38 56.1 °F 54.4 °F 30.15 in Calm   1.2 mph 94 % 0.00 in
00:43 56.0 °F 54.3 °F 30.15 in Calm   1.2 mph 94 % 0.00 in
00:48 55.9 °F 54.2 °F 30.15 in Calm   1.2 mph 94 % 0.00 in
00:53 55.8 °F 54.1 °F 30.14 in Calm     94 % 0.00 in
00:58 55.7 °F 53.7 °F 30.14 in Calm     93 % 0.00 in
01:03 55.5 °F 53.5 °F 30.14 in Calm     93 % 0.00 in
01:08 55.3 °F 53.3 °F 30.14 in Calm     93 % 0.00 in
01:13 55.2 °F 53.2 °F 30.14 in Calm     93 % 0.00 in
01:18 55.0 °F 53.0 °F 30.14 in Calm     93 % 0.00 in
01:23 54.9 °F 52.9 °F 30.13 in Calm     93 % 0.00 in
01:29 54.8 °F 52.8 °F 30.13 in Calm     93 % 0.00 in
01:34 54.6 °F 52.6 °F 30.12 in Calm     93 % 0.00 in
01:39 54.6 °F 52.6 °F 30.12 in Calm     93 % 0.00 in
01:44 54.5 °F 52.5 °F 30.13 in Calm     93 % 0.00 in
01:49 54.4 °F 52.4 °F 30.12 in Calm     93 % 0.00 in
01:54 54.3 °F 52.3 °F 30.12 in Calm   1.2 mph 93 % 0.00 in
01:59 54.2 °F 52.2 °F 30.12 in Calm     93 % 0.00 in
02:04 54.2 °F 52.5 °F 30.12 in Calm   1.2 mph 94 % 0.00 in
02:09 54.1 °F 52.4 °F 30.12 in Calm     94 % 0.00 in
02:14 54.1 °F 52.4 °F 30.12 in Calm   1.2 mph 94 % 0.00 in
02:20 54.1 °F 52.4 °F 30.11 in Calm     94 % 0.00 in
02:25 54.1 °F 52.4 °F 30.11 in Calm     94 % 0.00 in
02:30 54.1 °F 52.4 °F 30.11 in Calm     94 % 0.00 in
02:35 54.1 °F 52.7 °F 30.11 in Calm     95 % 0.00 in
02:40 54.0 °F 52.6 °F 30.11 in Calm     95 % 0.00 in
02:46 54.0 °F 52.6 °F 30.11 in Calm     95 % 0.00 in
02:51 54.0 °F 52.6 °F 30.11 in Calm   1.0 mph 95 % 0.00 in
02:56 54.1 °F 52.7 °F 30.10 in Calm   1.0 mph 95 % 0.00 in
03:01 54.1 °F 52.7 °F 30.10 in Calm     95 % 0.00 in
03:06 54.1 °F 52.7 °F 30.10 in Calm   1.0 mph 95 % 0.00 in
03:11 54.2 °F 53.1 °F 30.10 in Calm   1.0 mph 96 % 0.00 in
03:16 54.2 °F 53.1 °F 30.10 in Calm     96 % 0.00 in
03:21 54.2 °F 53.1 °F 30.10 in Calm     96 % 0.00 in
03:26 54.2 °F 53.1 °F 30.10 in Calm     96 % 0.00 in
03:31 54.3 °F 53.2 °F 30.10 in Calm     96 % 0.00 in
03:36 54.3 °F 53.2 °F 30.09 in Calm   1.0 mph 96 % 0.00 in
03:41 54.5 °F 53.3 °F 30.09 in Calm   1.0 mph 96 % 0.00 in
03:46 54.5 °F 53.4 °F 30.09 in Calm   1.2 mph 96 % 0.00 in
03:51 54.6 °F 53.5 °F 30.09 in Calm     96 % 0.00 in
03:56 54.6 °F 53.5 °F 30.09 in Calm     96 % 0.00 in
04:01 54.7 °F 53.6 °F 30.09 in Calm     96 % 0.00 in
04:06 54.8 °F 53.7 °F 30.09 in Calm     96 % 0.00 in
04:11 54.9 °F 54.1 °F 30.09 in Calm   1.0 mph 97 % 0.00 in
04:16 54.9 °F 54.1 °F 30.09 in Calm     97 % 0.00 in
04:21 55.0 °F 54.2 °F 30.09 in Calm   1.0 mph 97 % 0.00 in
04:26 55.0 °F 54.2 °F 30.09 in Calm     97 % 0.00 in
04:31 55.0 °F 54.2 °F 30.09 in Calm     97 % 0.00 in
04:36 55.0 °F 54.2 °F 30.09 in Calm   1.0 mph 97 % 0.00 in
04:41 55.0 °F 54.2 °F 30.08 in Calm   1.0 mph 97 % 0.00 in
04:46 55.0 °F 54.2 °F 30.08 in SSE 0.2 mph 1.2 mph 97 % 0.00 in
04:51 55.0 °F 54.2 °F 30.08 in Calm   1.0 mph 97 % 0.00 in
04:56 55.1 °F 54.3 °F 30.08 in Calm   1.0 mph 97 % 0.00 in
05:01 55.1 °F 54.3 °F 30.08 in Calm   1.0 mph 97 % 0.00 in
05:06 55.1 °F 54.3 °F 30.08 in Calm   1.0 mph 97 % 0.00 in
05:11 55.1 °F 54.3 °F 30.08 in Calm   1.0 mph 97 % 0.00 in
05:16 55.1 °F 54.3 °F 30.08 in Calm     97 % 0.00 in
05:21 55.1 °F 54.3 °F 30.08 in Calm   1.0 mph 97 % 0.00 in
05:26 55.1 °F 54.2 °F 30.08 in Calm   1.0 mph 97 % 0.00 in
05:31 55.0 °F 54.2 °F 30.08 in SSE 0.2 mph 1.0 mph 97 % 0.00 in
05:36 55.1 °F 54.2 °F 30.08 in Calm   2.0 mph 97 % 0.00 in
05:41 55.1 °F 54.2 °F 30.08 in Calm   1.0 mph 97 % 0.00 in
05:46 55.0 °F 54.2 °F 30.08 in Calm   1.0 mph 97 % 0.00 in
05:51 55.0 °F 54.2 °F 30.08 in Calm     97 % 0.00 in
05:56 54.9 °F 54.1 °F 30.08 in Calm     97 % 0.00 in
06:01 54.8 °F 53.7 °F 30.08 in Calm     96 % 0.00 in
06:06 54.7 °F 53.6 °F 30.08 in Calm     96 % 0.00 in
06:11 54.6 °F 53.5 °F 30.08 in Calm     96 % 0.00 in
06:16 54.6 °F 53.5 °F 30.08 in Calm     96 % 0.00 in
06:21 54.5 °F 53.7 °F 30.08 in Calm     97 % 0.00 in
06:26 54.4 °F 53.6 °F 30.08 in SW 0.6 mph 1.2 mph 97 % 0.00 in
06:31 54.4 °F 53.6 °F 30.08 in WSW 1.4 mph 3.5 mph 97 % 0.00 in
06:36 54.4 °F 53.6 °F 30.08 in WSW 1.0 mph 3.5 mph 97 % 0.00 in
06:41 54.6 °F 53.8 °F 30.08 in WSW 1.2 mph 2.3 mph 97 % 0.00 in
06:46 54.8 °F 54.0 °F 30.08 in WSW 2.0 mph 3.0 mph 97 % 0.00 in
06:52 54.9 °F 54.1 °F 30.08 in Calm   2.3 mph 97 % 0.00 in
06:57 55.1 °F 54.3 °F 30.08 in WSW 0.3 mph 1.2 mph 97 % 0.00 in
07:02 55.2 °F 54.4 °F 30.08 in WSW 1.0 mph 2.0 mph 97 % 0.00 in
07:07 55.4 °F 54.6 °F 30.08 in WSW 3.0 mph 3.5 mph 97 % 0.00 in
07:12 55.5 °F 54.7 °F 30.08 in WSW 0.2 mph 1.2 mph 97 % 0.00 in
07:17 55.7 °F 54.9 °F 30.08 in WSW 1.2 mph 2.3 mph 97 % 0.00 in
07:22 55.9 °F 55.3 °F 30.08 in SW 2.8 mph 3.5 mph 98 % 0.00 in
07:27 56.0 °F 55.4 °F 30.08 in SW 1.6 mph 3.5 mph 98 % 0.00 in
07:32 56.1 °F 55.3 °F 30.08 in SW 0.7 mph 3.5 mph 97 % 0.00 in
07:37 56.3 °F 55.5 °F 30.08 in SW 0.4 mph 2.0 mph 97 % 0.00 in
07:42 56.4 °F 55.8 °F 30.08 in SW 0.1 mph 2.3 mph 98 % 0.00 in
07:47 56.5 °F 55.9 °F 30.08 in Calm   2.3 mph 98 % 0.00 in
07:58 56.7 °F 56.1 °F 30.08 in SW 1.6 mph 3.5 mph 98 % 0.00 in
08:03 56.7 °F 56.1 °F 30.08 in SW 0.2 mph 1.2 mph 98 % 0.00 in
08:08 56.8 °F 56.2 °F 30.08 in Calm   2.3 mph 98 % 0.00 in
08:13 56.8 °F 56.2 °F 30.08 in Calm   1.0 mph 98 % 0.00 in
08:18 56.8 °F 56.2 °F 30.08 in SW 0.1 mph 1.2 mph 98 % 0.00 in
08:23 56.8 °F 56.2 °F 30.08 in Calm     98 % 0.00 in
08:28 56.8 °F 56.2 °F 30.07 in Calm     98 % 0.00 in
08:33 56.9 °F 56.1 °F 30.07 in Calm     97 % 0.00 in
08:39 56.9 °F 56.3 °F 30.08 in Calm     98 % 0.00 in
08:44 57.0 °F 56.4 °F 30.07 in Calm   1.2 mph 98 % 0.00 in
08:49 57.1 °F 56.5 °F 30.07 in Calm     98 % 0.00 in
08:54 57.1 °F 56.5 °F 30.08 in Calm     98 % 0.00 in
08:59 57.2 °F 56.6 °F 30.08 in Calm     98 % 0.00 in
09:04 57.3 °F 56.7 °F 30.08 in Calm     98 % 0.00 in
09:09 57.5 °F 56.9 °F 30.08 in Calm   1.0 mph 98 % 0.00 in
09:14 57.6 °F 57.0 °F 30.08 in SW 2.1 mph 3.5 mph 98 % 0.00 in
09:19 57.7 °F 57.1 °F 30.08 in SW 3.1 mph 3.5 mph 98 % 0.00 in
09:25 57.8 °F 57.2 °F 30.08 in WSW 1.7 mph 3.5 mph 98 % 0.00 in
09:30 57.8 °F 57.2 °F 30.08 in WSW 0.3 mph 1.2 mph 98 % 0.00 in
09:35 58.0 °F 57.4 °F 30.07 in SW 1.5 mph 3.5 mph 98 % 0.00 in
09:40 58.2 °F 57.6 °F 30.07 in WSW 1.5 mph 3.5 mph 98 % 0.00 in
09:45 58.4 °F 57.8 °F 30.07 in WSW 1.6 mph 3.5 mph 98 % 0.00 in
09:50 58.6 °F 58.0 °F 30.07 in WSW 1.9 mph 3.5 mph 98 % 0.00 in
09:55 58.9 °F 58.3 °F 30.07 in WSW 2.3 mph 3.5 mph 98 % 0.00 in
10:00 59.5 °F 58.9 °F 30.06 in WSW 2.0 mph 3.5 mph 98 % 0.00 in
10:05 60.1 °F 59.5 °F 30.06 in SW 0.4 mph 2.3 mph 98 % 0.00 in
10:10 60.6 °F 60.0 °F 30.06 in SW 3.8 mph 4.6 mph 98 % 0.00 in
10:16 60.9 °F 60.3 °F 30.06 in WSW 3.0 mph 5.0 mph 98 % 0.00 in
10:21 61.1 °F 60.5 °F 30.06 in WSW 3.0 mph 6.0 mph 98 % 0.00 in
10:25 61.2 °F 60.6 °F 30.06 in WSW 2.0 mph 5.0 mph 98 % 0.00 in
10:31 61.2 °F 60.6 °F 30.06 in WSW 2.0 mph 3.0 mph 98 % 0.00 in
10:36 61.3 °F 60.4 °F 30.06 in WSW 1.2 mph 2.3 mph 97 % 0.00 in
10:41 61.5 °F 60.9 °F 30.05 in SW 2.0 mph 6.0 mph 98 % 0.00 in
10:46 61.7 °F 60.8 °F 30.05 in Calm   4.0 mph 97 % 0.00 in
10:51 61.9 °F 61.0 °F 30.05 in West 1.0 mph 5.0 mph 97 % 0.00 in
10:57 62.0 °F 60.8 °F 30.05 in WNW 0.7 mph 3.5 mph 96 % 0.00 in
11:02 62.2 °F 61.0 °F 30.05 in WNW 0.5 mph 1.2 mph 96 % 0.00 in
11:07 62.5 °F 61.0 °F 30.05 in WNW 2.2 mph 4.6 mph 95 % 0.00 in
11:12 63.0 °F 61.5 °F 30.04 in North 1.9 mph 4.0 mph 95 % 0.00 in
11:17 63.7 °F 61.3 °F 30.04 in SW 5.1 mph 6.9 mph 92 % 0.00 in
11:22 64.4 °F 61.7 °F 30.04 in WNW 1.3 mph 4.0 mph 91 % 0.00 in
11:27 65.3 °F 61.7 °F 30.04 in West 2.0 mph 3.5 mph 88 % 0.00 in
11:32 66.0 °F 61.7 °F 30.03 in NW 1.6 mph 3.5 mph 86 % 0.00 in
11:37 66.6 °F 61.6 °F 30.04 in WNW 0.7 mph 3.5 mph 84 % 0.00 in
11:42 67.0 °F 61.7 °F 30.03 in NW 1.5 mph 3.5 mph 83 % 0.00 in
11:48 67.4 °F 62.1 °F 30.03 in NW 0.6 mph   83 % 0.00 in
11:53 67.8 °F 61.8 °F 30.03 in West 0.2 mph 2.3 mph 81 % 0.00 in
11:58 68.0 °F 61.2 °F 30.03 in WSW 0.9 mph 3.5 mph 79 % 0.00 in
12:03 68.2 °F 61.1 °F 30.02 in SW 1.1 mph 3.5 mph 78 % 0.00 in
12:08 68.4 °F 61.6 °F 30.02 in WSW 0.2 mph 1.2 mph 79 % 0.00 in
12:13 68.6 °F 61.1 °F 30.02 in WNW 4.1 mph 6.9 mph 77 % 0.00 in
12:18 68.7 °F 60.8 °F 30.02 in North 1.8 mph 4.6 mph 76 % 0.00 in
12:23 68.9 °F 62.1 °F 30.02 in NW 1.2 mph 3.5 mph 79 % 0.00 in
12:28 69.0 °F 61.9 °F 30.02 in NW 1.3 mph 3.5 mph 78 % 0.00 in
12:33 69.0 °F 62.2 °F 30.02 in North 1.9 mph 3.5 mph 79 % 0.00 in
12:39 68.9 °F 62.1 °F 30.02 in West 0.5 mph 2.0 mph 79 % 0.00 in
12:44 69.0 °F 61.9 °F 30.01 in SW 1.7 mph 3.5 mph 78 % 0.00 in
12:54 68.9 °F 61.0 °F 30.01 in SW 3.5 mph 4.6 mph 76 % 0.00 in
12:59 68.8 °F 61.7 °F 30.01 in Calm   1.2 mph 78 % 0.00 in
13:04 68.8 °F 61.7 °F 30.01 in WNW 1.4 mph 3.5 mph 78 % 0.00 in
13:09 68.8 °F 60.9 °F 30.01 in WNW 2.3 mph 6.9 mph 76 % 0.00 in
13:14 69.0 °F 61.1 °F 30.01 in SW 3.5 mph 6.0 mph 76 % 0.00 in
13:19 69.2 °F 60.6 °F 30.00 in WNW 1.1 mph 3.5 mph 74 % 0.00 in
13:24 69.4 °F 60.8 °F 30.00 in WNW 0.4 mph 3.5 mph 74 % 0.00 in
13:30 69.5 °F 60.5 °F 30.00 in WSW 0.4 mph 4.6 mph 73 % 0.00 in
13:35 69.5 °F 60.5 °F 30.00 in WSW 1.6 mph 3.5 mph 73 % 0.00 in
13:40 69.5 °F 60.5 °F 30.00 in SW 1.3 mph 4.6 mph 73 % 0.00 in
13:45 69.4 °F 60.0 °F 30.01 in West 3.3 mph 5.0 mph 72 % 0.00 in
13:50 69.2 °F 59.8 °F 30.01 in WNW 4.6 mph 6.9 mph 72 % 0.00 in
13:55 69.0 °F 59.6 °F 30.00 in West 1.8 mph 3.5 mph 72 % 0.00 in
14:00 68.8 °F 59.4 °F 30.01 in WNW 1.8 mph 8.1 mph 72 % 0.00 in
14:05 68.5 °F 59.1 °F 30.00 in West 1.8 mph 5.8 mph 72 % 0.00 in
14:10 68.2 °F 59.2 °F 30.00 in West 3.2 mph 5.8 mph 73 % 0.00 in
14:15 68.0 °F 59.4 °F 30.00 in WSW 3.2 mph 6.9 mph 74 % 0.00 in
14:21 67.8 °F 59.2 °F 30.01 in West 1.0 mph 6.0 mph 74 % 0.00 in
14:26 67.8 °F 59.5 °F 30.01 in West 3.0 mph 7.0 mph 75 % 0.00 in
14:31 67.8 °F 59.6 °F 30.00 in WSW 7.0 mph 12.0 mph 75 % 0.00 in
14:36 67.9 °F 59.7 °F 30.00 in WSW 2.0 mph 9.0 mph 75 % 0.00 in
14:41 68.1 °F 59.9 °F 30.00 in SW 6.0 mph 13.0 mph 75 % 0.00 in
14:46 68.2 °F 59.6 °F 30.00 in WSW 5.0 mph 9.0 mph 74 % 0.00 in
14:51 68.3 °F 59.7 °F 30.00 in WSW 2.0 mph 8.0 mph 74 % 0.00 in
14:56 68.3 °F 59.7 °F 30.00 in WSW 3.0 mph 9.0 mph 74 % 0.00 in
15:01 68.3 °F 59.3 °F 30.00 in SW 4.3 mph 8.1 mph 73 % 0.00 in
15:06 68.2 °F 59.2 °F 30.00 in South 5.4 mph 10.4 mph 73 % 0.00 in
15:11 68.0 °F 59.4 °F 30.00 in WSW 0.1 mph 1.2 mph 74 % 0.00 in
15:16 67.9 °F 59.3 °F 29.99 in SW 3.3 mph 5.0 mph 74 % 0.00 in
15:21 67.7 °F 59.5 °F 29.99 in Calm   1.2 mph 75 % 0.00 in
15:26 67.7 °F 59.9 °F 29.99 in West 2.6 mph 4.6 mph 76 % 0.00 in
15:31 67.5 °F 59.7 °F 29.99 in WSW 0.6 mph 5.8 mph 76 % 0.00 in
15:36 67.3 °F 59.1 °F 30.00 in West 3.7 mph 5.0 mph 75 % 0.00 in
15:41 67.2 °F 59.0 °F 30.00 in WSW 2.5 mph 5.0 mph 75 % 0.00 in
15:47 67.0 °F 58.8 °F 30.00 in WNW 2.6 mph 5.8 mph 75 % 0.00 in
15:52 66.8 °F 58.6 °F 30.00 in SW 3.8 mph 6.0 mph 75 % 0.00 in
15:57 66.5 °F 58.3 °F 30.01 in WNW 2.3 mph 4.0 mph 75 % 0.00 in
16:02 66.3 °F 58.1 °F 30.01 in WNW 4.3 mph 9.2 mph 75 % 0.00 in
16:07 66.1 °F 57.9 °F 30.01 in WSW 2.2 mph 5.8 mph 75 % 0.00 in
16:12 65.9 °F 58.1 °F 30.01 in West 3.1 mph 6.9 mph 76 % 0.00 in
16:17 65.7 °F 57.9 °F 30.01 in West 4.1 mph 5.8 mph 76 % 0.00 in
16:22 65.6 °F 58.2 °F 30.01 in WSW 1.9 mph 3.5 mph 77 % 0.00 in
16:27 65.5 °F 58.1 °F 30.01 in WSW 1.7 mph 4.6 mph 77 % 0.00 in
16:32 65.4 °F 58.4 °F 30.01 in SSW 3.2 mph 5.0 mph 78 % 0.00 in
16:38 65.4 °F 58.4 °F 30.01 in West 6.6 mph 9.2 mph 78 % 0.00 in
16:43 65.3 °F 58.3 °F 30.01 in SW 5.2 mph 9.2 mph 78 % 0.00 in
16:48 65.3 °F 58.3 °F 30.01 in WNW 2.7 mph 6.9 mph 78 % 0.00 in
16:53 65.3 °F 58.3 °F 30.01 in West 5.8 mph 10.4 mph 78 % 0.00 in
16:58 65.2 °F 58.2 °F 30.01 in West 3.8 mph 6.9 mph 78 % 0.00 in
17:03 65.1 °F 58.1 °F 30.01 in NNW 4.4 mph 8.1 mph 78 % 0.00 in
17:08 65.0 °F 58.0 °F 30.02 in WSW 6.9 mph 11.5 mph 78 % 0.00 in
17:13 64.7 °F 58.0 °F 30.01 in WNW 4.4 mph 6.9 mph 79 % 0.00 in
17:18 64.5 °F 58.2 °F 30.02 in West 3.2 mph 11.5 mph 80 % 0.00 in
17:23 64.3 °F 58.0 °F 30.01 in WSW 3.1 mph 11.5 mph 80 % 0.00 in
17:29 64.1 °F 57.8 °F 30.01 in SW 2.4 mph 10.4 mph 80 % 0.00 in
17:34 64.0 °F 58.1 °F 30.02 in NW 4.3 mph 8.1 mph 81 % 0.00 in
17:39 63.8 °F 57.9 °F 30.02 in SW 4.5 mph 6.9 mph 81 % 0.00 in
17:44 63.7 °F 57.8 °F 30.02 in NW 2.0 mph 4.6 mph 81 % 0.00 in
17:49 63.6 °F 58.0 °F 30.02 in SW 3.9 mph 7.0 mph 82 % 0.00 in
17:54 63.5 °F 57.9 °F 30.02 in NW 3.0 mph 5.8 mph 82 % 0.00 in
17:59 63.4 °F 57.8 °F 30.02 in West 1.3 mph 5.0 mph 82 % 0.00 in
18:04 63.3 °F 57.7 °F 30.02 in WNW 3.0 mph 4.6 mph 82 % 0.00 in
18:09 63.2 °F 57.9 °F 30.02 in SSW 2.3 mph 8.1 mph 83 % 0.00 in
18:14 63.1 °F 57.9 °F 30.02 in WNW 0.9 mph 4.6 mph 83 % 0.00 in
18:20 63.1 °F 57.9 °F 30.02 in West 2.0 mph 3.5 mph 83 % 0.00 in
18:25 63.0 °F 57.8 °F 30.02 in West 3.6 mph 6.9 mph 83 % 0.00 in
18:30 62.9 °F 58.0 °F 30.02 in West 2.9 mph 5.8 mph 84 % 0.00 in
18:35 62.8 °F 57.9 °F 30.03 in WSW 4.3 mph 8.1 mph 84 % 0.00 in
18:40 62.6 °F 57.7 °F 30.03 in WSW 1.4 mph 3.5 mph 84 % 0.00 in
18:45 62.5 °F 57.6 °F 30.03 in NW 1.8 mph 4.0 mph 84 % 0.00 in
18:50 62.4 °F 57.5 °F 30.03 in West 2.3 mph 3.5 mph 84 % 0.00 in
18:55 62.3 °F 57.7 °F 30.03 in SSW 3.5 mph 6.0 mph 85 % 0.00 in
19:00 62.1 °F 57.5 °F 30.03 in SW 0.1 mph 5.8 mph 85 % 0.00 in
19:05 62.0 °F 57.4 °F 30.04 in WNW 1.9 mph 4.6 mph 85 % 0.00 in
19:11 61.9 °F 57.3 °F 30.04 in West 2.0 mph 6.9 mph 85 % 0.00 in
19:16 61.8 °F 57.6 °F 30.04 in Calm   2.0 mph 86 % 0.00 in
19:21 61.8 °F 57.5 °F 30.04 in WSW 3.0 mph 8.0 mph 86 % 0.00 in
19:26 61.7 °F 57.5 °F 30.04 in WNW 1.7 mph 4.6 mph 86 % 0.00 in
19:31 61.6 °F 57.4 °F 30.04 in Calm   3.0 mph 86 % 0.00 in
19:36 61.5 °F 57.6 °F 30.05 in WSW 1.0 mph 4.0 mph 87 % 0.00 in
19:41 61.4 °F 57.5 °F 30.05 in WSW 2.0 mph 4.0 mph 87 % 0.00 in
19:46 61.3 °F 57.4 °F 30.05 in WSW 1.0 mph 4.0 mph 87 % 0.00 in
19:51 61.2 °F 57.3 °F 30.05 in Calm   10.0 mph 87 % 0.00 in
19:56 61.1 °F 57.2 °F 30.05 in West 2.0 mph 10.0 mph 87 % 0.00 in
20:01 61.0 °F 57.1 °F 30.05 in West 2.0 mph 6.9 mph 87 % 0.00 in
20:06 60.9 °F 57.0 °F 30.06 in WNW 3.1 mph 6.0 mph 87 % 0.00 in
20:11 60.9 °F 57.0 °F 30.06 in WSW 1.8 mph 5.0 mph 87 % 0.00 in
20:16 60.8 °F 56.9 °F 30.06 in WNW 2.5 mph 5.8 mph 87 % 0.00 in
20:21 60.8 °F 56.9 °F 30.07 in WNW 2.6 mph 4.6 mph 87 % 0.00 in
20:26 60.8 °F 56.6 °F 30.07 in SW 3.8 mph 5.0 mph 86 % 0.00 in
20:31 60.7 °F 56.5 °F 30.07 in NW 2.6 mph 7.0 mph 86 % 0.00 in
20:36 60.7 °F 56.5 °F 30.07 in WNW 1.3 mph 3.5 mph 86 % 0.00 in
20:41 60.7 °F 56.5 °F 30.07 in West 3.4 mph 6.9 mph 86 % 0.00 in
20:47 60.7 °F 56.8 °F 30.07 in West 3.4 mph 6.9 mph 87 % 0.00 in
20:52 60.7 °F 56.8 °F 30.07 in WSW 0.5 mph 5.8 mph 87 % 0.00 in
20:57 60.7 °F 56.8 °F 30.08 in West 3.9 mph 9.2 mph 87 % 0.00 in
21:02 60.7 °F 56.5 °F 30.08 in WNW 2.7 mph 8.1 mph 86 % 0.00 in
21:07 60.7 °F 56.5 °F 30.08 in NW 3.1 mph 10.4 mph 86 % 0.00 in
21:12 60.7 °F 56.5 °F 30.09 in NE 3.0 mph 6.9 mph 86 % 0.00 in
21:17 60.7 °F 56.2 °F 30.09 in WNW 4.1 mph 11.5 mph 85 % 0.00 in
21:22 60.7 °F 56.5 °F 30.10 in NW 3.9 mph 6.9 mph 86 % 0.00 in
21:27 60.7 °F 56.2 °F 30.10 in NW 6.6 mph 9.2 mph 85 % 0.00 in
21:38 60.6 °F 56.1 °F 30.10 in ESE 3.0 mph 10.4 mph 85 % 0.00 in
21:43 60.5 °F 56.0 °F 30.10 in NNW 4.4 mph 9.2 mph 85 % 0.00 in
21:48 60.5 °F 56.0 °F 30.11 in NNE 2.1 mph 11.5 mph 85 % 0.00 in
21:53 60.4 °F 55.9 °F 30.11 in North 4.2 mph 8.1 mph 85 % 0.00 in
21:58 60.3 °F 55.8 °F 30.11 in NNE 4.5 mph 6.9 mph 85 % 0.00 in
22:03 60.2 °F 56.0 °F 30.11 in NW 2.5 mph 6.0 mph 86 % 0.00 in
22:08 60.1 °F 55.9 °F 30.11 in NNW 3.7 mph 8.0 mph 86 % 0.00 in
22:13 59.8 °F 55.6 °F 30.11 in North 4.5 mph 6.0 mph 86 % 0.00 in
22:18 59.6 °F 55.1 °F 30.11 in North 4.5 mph 5.8 mph 85 % 0.00 in
22:23 59.4 °F 54.9 °F 30.11 in North 2.1 mph 4.6 mph 85 % 0.00 in
22:29 59.3 °F 54.8 °F 30.12 in NNE 2.4 mph 6.9 mph 85 % 0.00 in
22:34 59.2 °F 54.7 °F 30.12 in NNE 4.5 mph 10.0 mph 85 % 0.00 in
22:39 59.0 °F 54.2 °F 30.12 in NNE 5.2 mph 11.5 mph 84 % 0.00 in
22:44 58.9 °F 53.4 °F 30.12 in North 7.6 mph 11.5 mph 82 % 0.00 in
22:49 58.7 °F 52.5 °F 30.12 in North 9.3 mph 13.0 mph 80 % 0.00 in
22:54 58.6 °F 52.1 °F 30.13 in NNW 3.2 mph 15.0 mph 79 % 0.00 in
22:59 58.5 °F 52.0 °F 30.13 in NE 7.9 mph 14.0 mph 79 % 0.00 in
23:04 58.4 °F 52.3 °F 30.13 in NNE 3.7 mph 11.5 mph 80 % 0.00 in
23:09 58.2 °F 52.1 °F 30.13 in North 6.1 mph 10.0 mph 80 % 0.00 in
23:14 58.0 °F 51.2 °F 30.14 in NNE 9.4 mph 18.0 mph 78 % 0.00 in
23:20 57.8 °F 49.9 °F 30.14 in NNW 5.6 mph 12.7 mph 75 % 0.00 in
23:25 57.6 °F 50.1 °F 30.14 in NNE 4.7 mph 10.4 mph 76 % 0.00 in
23:30 57.5 °F 50.3 °F 30.14 in NNE 5.1 mph 6.9 mph 77 % 0.00 in
23:35 57.3 °F 50.1 °F 30.14 in North 5.2 mph 8.1 mph 77 % 0.00 in
23:40 57.2 °F 50.1 °F 30.14 in North 3.3 mph 4.6 mph 77 % 0.00 in
23:45 57.0 °F 49.5 °F 30.14 in NNE 7.3 mph 13.0 mph 76 % 0.00 in
23:50 56.8 °F 49.3 °F 30.14 in NNW 4.9 mph 10.4 mph 76 % 0.00 in
23:55 56.6 °F 48.8 °F 30.14 in North 5.8 mph 9.2 mph 75 % 0.00 in
Crab Meadow Weather
Compliments of Weather Underground - 3 mb

Script developed by  Jim McMurry - jmcmurry@mwt.net Adapted for the template by  Wim van der Kuil - Leuven-Template.eu

Weather Terms: Flood Watch - Conditions are favorable for flash flooding in and close to the watch area. These watches are issued by the Weather Forecast Office in Upton and are usually for the first 12 to 24 hours of a forecast.